sensor_id;sensor_type;location;lat;lon;timestamp;pressure;altitude;pressure_sealevel;temperature;humidity
63556;BME280;49700;48.072;7.800;2023-02-11T00:01:08;101655.59;;;-0.06;68.11
63556;BME280;49700;48.072;7.800;2023-02-11T00:03:35;101650.47;;;-0.03;67.90
63556;BME280;49700;48.072;7.800;2023-02-11T00:06:04;101647.84;;;-0.06;67.96
63556;BME280;49700;48.072;7.800;2023-02-11T00:08:30;101646.13;;;-0.07;68.24
63556;BME280;49700;48.072;7.800;2023-02-11T00:10:56;101647.81;;;-0.11;68.09
63556;BME280;49700;48.072;7.800;2023-02-11T00:13:23;101646.00;;;-0.18;68.07
63556;BME280;49700;48.072;7.800;2023-02-11T00:15:49;101650.22;;;-0.23;68.16
63556;BME280;49700;48.072;7.800;2023-02-11T00:18:15;101650.16;;;-0.28;68.26
63556;BME280;49700;48.072;7.800;2023-02-11T00:20:41;101644.97;;;-0.32;68.43
63556;BME280;49700;48.072;7.800;2023-02-11T00:23:06;101655.25;;;-0.34;68.49
63556;BME280;49700;48.072;7.800;2023-02-11T00:25:32;101652.66;;;-0.34;68.41
63556;BME280;49700;48.072;7.800;2023-02-11T00:27:58;101649.19;;;-0.36;68.63
63556;BME280;49700;48.072;7.800;2023-02-11T00:30:23;101647.44;;;-0.38;68.43
63556;BME280;49700;48.072;7.800;2023-02-11T00:32:49;101647.44;;;-0.40;68.40
63556;BME280;49700;48.072;7.800;2023-02-11T00:35:14;101639.69;;;-0.40;68.54
63556;BME280;49700;48.072;7.800;2023-02-11T00:37:40;101632.75;;;-0.41;68.25
63556;BME280;49700;48.072;7.800;2023-02-11T00:40:06;101640.47;;;-0.46;68.44
63556;BME280;49700;48.072;7.800;2023-02-11T00:42:31;101631.75;;;-0.52;68.71
63556;BME280;49700;48.072;7.800;2023-02-11T00:44:57;101640.31;;;-0.55;68.76
63556;BME280;49700;48.072;7.800;2023-02-11T00:47:23;101633.38;;;-0.59;68.70
63556;BME280;49700;48.072;7.800;2023-02-11T00:49:48;101641.00;;;-0.67;68.93
63556;BME280;49700;48.072;7.800;2023-02-11T00:52:13;101652.16;;;-0.69;69.14
63556;BME280;49700;48.072;7.800;2023-02-11T00:54:39;101646.16;;;-0.67;68.95
63556;BME280;49700;48.072;7.800;2023-02-11T00:57:05;101651.25;;;-0.73;69.24
63556;BME280;49700;48.072;7.800;2023-02-11T00:59:30;101644.25;;;-0.80;69.10
63556;BME280;49700;48.072;7.800;2023-02-11T01:01:56;101648.47;;;-0.85;69.47
63556;BME280;49700;48.072;7.800;2023-02-11T01:04:21;101648.50;;;-0.83;69.38
63556;BME280;49700;48.072;7.800;2023-02-11T01:06:50;101655.44;;;-0.81;69.50
63556;BME280;49700;48.072;7.800;2023-02-11T01:09:15;101658.09;;;-0.75;69.71
63556;BME280;49700;48.072;7.800;2023-02-11T01:11:41;101652.97;;;-0.72;69.12
63556;BME280;49700;48.072;7.800;2023-02-11T01:14:06;101648.66;;;-0.73;69.32
63556;BME280;49700;48.072;7.800;2023-02-11T01:16:32;101652.84;;;-0.79;69.23
63556;BME280;49700;48.072;7.800;2023-02-11T01:18:57;101657.88;;;-0.87;69.51
63556;BME280;49700;48.072;7.800;2023-02-11T01:21:24;101644.06;;;-0.91;69.83
63556;BME280;49700;48.072;7.800;2023-02-11T01:23:49;101661.28;;;-0.90;69.42
63556;BME280;49700;48.072;7.800;2023-02-11T01:26:15;101655.31;;;-0.87;69.68
63556;BME280;49700;48.072;7.800;2023-02-11T01:28:41;101651.09;;;-0.82;69.61
63556;BME280;49700;48.072;7.800;2023-02-11T01:31:06;101653.75;;;-0.77;69.69
63556;BME280;49700;48.072;7.800;2023-02-11T01:33:32;101651.22;;;-0.74;69.56
63556;BME280;49700;48.072;7.800;2023-02-11T01:36:04;101651.25;;;-0.73;69.31
63556;BME280;49700;48.072;7.800;2023-02-11T01:38:31;101646.09;;;-0.73;69.59
63556;BME280;49700;48.072;7.800;2023-02-11T01:40:59;101653.78;;;-0.74;69.37
63556;BME280;49700;48.072;7.800;2023-02-11T01:43:28;101657.22;;;-0.75;69.46
63556;BME280;49700;48.072;7.800;2023-02-11T01:46:22;101652.06;;;-0.75;69.38
63556;BME280;49700;48.072;7.800;2023-02-11T01:49:09;101641.75;;;-0.74;69.34
63556;BME280;49700;48.072;7.800;2023-02-11T01:51:39;101637.41;;;-0.76;69.71
63556;BME280;49700;48.072;7.800;2023-02-11T01:54:08;101632.19;;;-0.81;69.59
63556;BME280;49700;48.072;7.800;2023-02-11T01:56:54;101628.72;;;-0.83;69.92
63556;BME280;49700;48.072;7.800;2023-02-11T02:02:20;101624.38;;;-0.84;69.53
63556;BME280;49700;48.072;7.800;2023-02-11T02:04:54;101639.88;;;-0.85;69.58
63556;BME280;49700;48.072;7.800;2023-02-11T02:08:28;101632.91;;;-0.90;69.98
63556;BME280;49700;48.072;7.800;2023-02-11T02:10:30;101637.19;;;-0.92;70.30
63556;BME280;49700;48.072;7.800;2023-02-11T02:12:55;101630.31;;;-0.91;70.09
63556;BME280;49700;48.072;7.800;2023-02-11T02:15:27;101623.44;;;-0.91;70.12
63556;BME280;49700;48.072;7.800;2023-02-11T02:18:00;101609.63;;;-0.94;70.07
63556;BME280;49700;48.072;7.800;2023-02-11T02:20:39;101602.72;;;-0.95;70.03
63556;BME280;49700;48.072;7.800;2023-02-11T02:28:57;101599.25;;;-0.99;69.88
63556;BME280;49700;48.072;7.800;2023-02-11T02:31:48;101589.75;;;-1.01;70.17
63556;BME280;49700;48.072;7.800;2023-02-11T02:37:17;101598.34;;;-1.02;70.13
63556;BME280;49700;48.072;7.800;2023-02-11T02:39:47;101588.88;;;-1.02;69.94
63556;BME280;49700;48.072;7.800;2023-02-11T02:42:14;101603.50;;;-1.01;70.05
63556;BME280;49700;48.072;7.800;2023-02-11T02:44:47;101592.34;;;-0.98;69.87
63556;BME280;49700;48.072;7.800;2023-02-11T02:47:12;101592.34;;;-0.98;70.11
63556;BME280;49700;48.072;7.800;2023-02-11T02:49:38;101595.81;;;-0.98;70.03
63556;BME280;49700;48.072;7.800;2023-02-11T02:52:24;101596.63;;;-1.02;70.02
63556;BME280;49700;48.072;7.800;2023-02-11T03:00:27;101583.53;;;-1.13;70.02
63556;BME280;49700;48.072;7.800;2023-02-11T03:03:09;101574.06;;;-1.15;69.93
63556;BME280;49700;48.072;7.800;2023-02-11T03:05:56;101579.16;;;-1.17;70.23
63556;BME280;49700;48.072;7.800;2023-02-11T03:08:40;101574.88;;;-1.18;70.12
63556;BME280;49700;48.072;7.800;2023-02-11T03:11:09;101567.06;;;-1.22;69.98
63556;BME280;49700;48.072;7.800;2023-02-11T03:13:37;101564.41;;;-1.27;69.95
63556;BME280;49700;48.072;7.800;2023-02-11T03:16:08;101568.59;;;-1.34;70.13
63556;BME280;49700;48.072;7.800;2023-02-11T03:18:36;101566.81;;;-1.38;70.28
63556;BME280;49700;48.072;7.800;2023-02-11T03:21:04;101563.41;;;-1.35;70.59
63556;BME280;49700;48.072;7.800;2023-02-11T03:23:39;101566.88;;;-1.33;70.35
63556;BME280;49700;48.072;7.800;2023-02-11T03:26:29;101562.56;;;-1.33;70.21
63556;BME280;49700;48.072;7.800;2023-02-11T03:34:13;101554.66;;;-1.43;70.28
63556;BME280;49700;48.072;7.800;2023-02-11T03:36:50;101556.25;;;-1.51;70.47
63556;BME280;49700;48.072;7.800;2023-02-11T03:39:22;101558.81;;;-1.53;70.82
63556;BME280;49700;48.072;7.800;2023-02-11T03:41:50;101558.00;;;-1.49;70.63
63556;BME280;49700;48.072;7.800;2023-02-11T03:44:18;101543.50;;;-1.45;70.31
63556;BME280;49700;48.072;7.800;2023-02-11T03:46:49;101555.56;;;-1.41;70.35
63556;BME280;49700;48.072;7.800;2023-02-11T03:49:17;101550.47;;;-1.38;70.28
63556;BME280;49700;48.072;7.800;2023-02-11T03:51:45;101533.31;;;-1.36;70.11
63556;BME280;49700;48.072;7.800;2023-02-11T03:54:15;101535.88;;;-1.38;70.41
63556;BME280;49700;48.072;7.800;2023-02-11T03:56:50;101536.59;;;-1.46;70.08
63556;BME280;49700;48.072;7.800;2023-02-11T03:59:16;101545.06;;;-1.53;70.35
63556;BME280;49700;48.072;7.800;2023-02-11T04:01:42;101536.38;;;-1.59;70.25
63556;BME280;49700;48.072;7.800;2023-02-11T04:04:07;101548.38;;;-1.61;70.42
63556;BME280;49700;48.072;7.800;2023-02-11T04:06:33;101547.47;;;-1.63;70.37
63556;BME280;49700;48.072;7.800;2023-02-11T04:08:58;101544.03;;;-1.63;70.58
63556;BME280;49700;48.072;7.800;2023-02-11T04:11:24;101547.53;;;-1.60;70.58
63556;BME280;49700;48.072;7.800;2023-02-11T04:13:49;101540.69;;;-1.59;70.66
63556;BME280;49700;48.072;7.800;2023-02-11T04:16:14;101544.13;;;-1.57;70.59
63556;BME280;49700;48.072;7.800;2023-02-11T04:18:40;101543.28;;;-1.58;70.59
63556;BME280;49700;48.072;7.800;2023-02-11T04:21:05;101551.84;;;-1.59;70.52
63556;BME280;49700;48.072;7.800;2023-02-11T04:23:31;101561.31;;;-1.58;70.78
63556;BME280;49700;48.072;7.800;2023-02-11T04:25:56;101567.28;;;-1.60;70.59
63556;BME280;49700;48.072;7.800;2023-02-11T04:28:22;101568.13;;;-1.61;70.30
63556;BME280;49700;48.072;7.800;2023-02-11T04:30:50;101571.63;;;-1.58;70.52
63556;BME280;49700;48.072;7.800;2023-02-11T04:33:15;101575.94;;;-1.57;70.64
63556;BME280;49700;48.072;7.800;2023-02-11T04:35:41;101581.97;;;-1.56;70.51
63556;BME280;49700;48.072;7.800;2023-02-11T04:38:06;101586.22;;;-1.58;70.32
63556;BME280;49700;48.072;7.800;2023-02-11T04:40:32;101588.75;;;-1.60;70.37
63556;BME280;49700;48.072;7.800;2023-02-11T04:42:57;101588.75;;;-1.61;70.52
63556;BME280;49700;48.072;7.800;2023-02-11T04:45:22;101589.59;;;-1.61;70.55
63556;BME280;49700;48.072;7.800;2023-02-11T04:47:48;101602.50;;;-1.61;70.43
63556;BME280;49700;48.072;7.800;2023-02-11T04:50:14;101593.09;;;-1.59;70.45
63556;BME280;49700;48.072;7.800;2023-02-11T04:52:42;101598.25;;;-1.59;70.38
63556;BME280;49700;48.072;7.800;2023-02-11T04:55:08;101611.13;;;-1.57;70.40
63556;BME280;49700;48.072;7.800;2023-02-11T04:57:33;101604.28;;;-1.57;70.52
63556;BME280;49700;48.072;7.800;2023-02-11T05:00:04;101605.09;;;-1.59;70.44
63556;BME280;49700;48.072;7.800;2023-02-11T05:02:30;101597.38;;;-1.59;70.58
63556;BME280;49700;48.072;7.800;2023-02-11T05:04:56;101594.81;;;-1.59;70.57
63556;BME280;49700;48.072;7.800;2023-02-11T05:07:25;101601.63;;;-1.61;70.55
63556;BME280;49700;48.072;7.800;2023-02-11T05:09:53;101586.97;;;-1.64;70.90
63556;BME280;49700;48.072;7.800;2023-02-11T05:12:19;101577.50;;;-1.65;70.79
63556;BME280;49700;48.072;7.800;2023-02-11T05:14:46;101591.28;;;-1.64;70.94
63556;BME280;49700;48.072;7.800;2023-02-11T05:17:12;101582.72;;;-1.62;70.82
63556;BME280;49700;48.072;7.800;2023-02-11T05:19:37;101563.84;;;-1.61;70.72
63556;BME280;49700;48.072;7.800;2023-02-11T05:22:03;101562.13;;;-1.62;70.66
63556;BME280;49700;48.072;7.800;2023-02-11T05:24:33;101573.25;;;-1.63;70.81
63556;BME280;49700;48.072;7.800;2023-02-11T05:27:04;101544.94;;;-1.60;70.66
63556;BME280;49700;48.072;7.800;2023-02-11T05:29:37;101544.13;;;-1.59;70.77
63556;BME280;49700;48.072;7.800;2023-02-11T05:32:06;101543.31;;;-1.54;70.93
63556;BME280;49700;48.072;7.800;2023-02-11T05:34:34;101550.28;;;-1.49;70.80
63556;BME280;49700;48.072;7.800;2023-02-11T05:37:00;101560.69;;;-1.44;70.50
63556;BME280;49700;48.072;7.800;2023-02-11T05:39:25;101565.84;;;-1.44;70.46
63556;BME280;49700;48.072;7.800;2023-02-11T05:41:51;101571.84;;;-1.44;70.35
63556;BME280;49700;48.072;7.800;2023-02-11T05:44:17;101570.13;;;-1.43;70.40
63556;BME280;49700;48.072;7.800;2023-02-11T05:46:42;101571.75;;;-1.50;70.29
63556;BME280;49700;48.072;7.800;2023-02-11T05:49:08;101574.25;;;-1.54;70.25
63556;BME280;49700;48.072;7.800;2023-02-11T05:51:34;101583.59;;;-1.60;70.62
63556;BME280;49700;48.072;7.800;2023-02-11T05:54:00;101580.97;;;-1.64;70.27
63556;BME280;49700;48.072;7.800;2023-02-11T05:56:29;101561.16;;;-1.67;70.55
63556;BME280;49700;48.072;7.800;2023-02-11T05:58:55;101559.41;;;-1.69;70.65
63556;BME280;49700;48.072;7.800;2023-02-11T06:01:22;101543.06;;;-1.70;70.92
63556;BME280;49700;48.072;7.800;2023-02-11T06:03:48;101543.06;;;-1.70;70.63
63556;BME280;49700;48.072;7.800;2023-02-11T06:06:16;101554.19;;;-1.72;70.65
63556;BME280;49700;48.072;7.800;2023-02-11T06:08:42;101545.56;;;-1.73;70.68
63556;BME280;49700;48.072;7.800;2023-02-11T06:11:13;101541.31;;;-1.71;70.81
63556;BME280;49700;48.072;7.800;2023-02-11T06:13:39;101536.16;;;-1.71;70.71
63556;BME280;49700;48.072;7.800;2023-02-11T06:16:05;101538.72;;;-1.72;70.85
63556;BME280;49700;48.072;7.800;2023-02-11T06:18:36;101537.03;;;-1.70;70.79
63556;BME280;49700;48.072;7.800;2023-02-11T06:21:11;101539.72;;;-1.64;70.55
63556;BME280;49700;48.072;7.800;2023-02-11T06:23:41;101536.34;;;-1.62;70.65
63556;BME280;49700;48.072;7.800;2023-02-11T06:26:17;101527.81;;;-1.58;70.37
63556;BME280;49700;48.072;7.800;2023-02-11T06:28:47;101518.34;;;-1.59;70.72
63556;BME280;49700;48.072;7.800;2023-02-11T06:31:19;101525.22;;;-1.59;70.49
63556;BME280;49700;48.072;7.800;2023-02-11T06:33:48;101520.06;;;-1.58;70.37
63556;BME280;49700;48.072;7.800;2023-02-11T06:36:27;101515.81;;;-1.56;70.68
63556;BME280;49700;48.072;7.800;2023-02-11T06:39:11;101502.94;;;-1.54;70.60
63556;BME280;49700;48.072;7.800;2023-02-11T06:41:40;101507.25;;;-1.54;70.32
63556;BME280;49700;48.072;7.800;2023-02-11T06:44:15;101515.81;;;-1.56;70.44
63556;BME280;49700;48.072;7.800;2023-02-11T06:46:48;101512.31;;;-1.61;70.48
63556;BME280;49700;48.072;7.800;2023-02-11T06:49:24;101525.09;;;-1.65;70.45
63556;BME280;49700;48.072;7.800;2023-02-11T06:52:06;101509.53;;;-1.71;70.70
63556;BME280;49700;48.072;7.800;2023-02-11T06:54:35;101506.97;;;-1.71;70.55
63556;BME280;49700;48.072;7.800;2023-02-11T06:57:07;101500.09;;;-1.71;70.55
63556;BME280;49700;48.072;7.800;2023-02-11T06:59:41;101509.59;;;-1.70;70.70
63556;BME280;49700;48.072;7.800;2023-02-11T07:02:15;101507.06;;;-1.67;70.57
63556;BME280;49700;48.072;7.800;2023-02-11T07:04:43;101506.25;;;-1.63;70.33
63556;BME280;49700;48.072;7.800;2023-02-11T07:07:28;101502.91;;;-1.59;70.83
63556;BME280;49700;48.072;7.800;2023-02-11T07:10:03;101519.31;;;-1.53;70.60
63556;BME280;49700;48.072;7.800;2023-02-11T07:12:39;101528.84;;;-1.48;70.21
63556;BME280;49700;48.072;7.800;2023-02-11T07:15:15;101535.81;;;-1.41;70.62
63556;BME280;49700;48.072;7.800;2023-02-11T07:17:46;101552.31;;;-1.31;70.23
63556;BME280;49700;48.072;7.800;2023-02-11T07:20:36;101541.22;;;-1.27;69.95
63556;BME280;49700;48.072;7.800;2023-02-11T07:23:04;101539.53;;;-1.22;69.95
63556;BME280;49700;48.072;7.800;2023-02-11T07:25:36;101550.81;;;-1.17;70.09
63556;BME280;49700;48.072;7.800;2023-02-11T07:28:12;101556.91;;;-1.12;69.80
63556;BME280;49700;48.072;7.800;2023-02-11T07:30:45;101555.31;;;-1.05;69.78
63556;BME280;49700;48.072;7.800;2023-02-11T07:33:14;101555.44;;;-0.96;69.74
63556;BME280;49700;48.072;7.800;2023-02-11T07:36:07;101569.34;;;-0.86;69.47
63556;BME280;49700;48.072;7.800;2023-02-11T07:38:39;101575.53;;;-0.73;69.27
63556;BME280;49700;48.072;7.800;2023-02-11T07:41:16;101575.66;;;-0.62;69.16
63556;BME280;49700;48.072;7.800;2023-02-11T07:43:45;101586.09;;;-0.55;68.90
63556;BME280;49700;48.072;7.800;2023-02-11T07:46:15;101586.25;;;-0.44;68.82
63556;BME280;49700;48.072;7.800;2023-02-11T07:48:56;101590.69;;;-0.34;68.63
63556;BME280;49700;48.072;7.800;2023-02-11T07:51:28;101595.13;;;-0.24;68.46
63556;BME280;49700;48.072;7.800;2023-02-11T07:54:00;101597.00;;;-0.12;68.28
63556;BME280;49700;48.072;7.800;2023-02-11T07:56:35;101597.13;;;-0.01;68.19
63556;BME280;49700;48.072;7.800;2023-02-11T07:59:14;101594.66;;;0.08;68.03
63556;BME280;49700;48.072;7.800;2023-02-11T08:01:40;101591.28;;;0.14;67.99
63556;BME280;49700;48.072;7.800;2023-02-11T08:04:14;101593.84;;;0.15;67.94
63556;BME280;49700;48.072;7.800;2023-02-11T08:06:47;101590.47;;;0.19;68.32
63556;BME280;49700;48.072;7.800;2023-02-11T08:09:16;101602.56;;;0.24;68.20
63556;BME280;49700;48.072;7.800;2023-02-11T08:11:53;101593.13;;;0.29;68.29
63556;BME280;49700;48.072;7.800;2023-02-11T08:14:19;101602.69;;;0.33;68.40
63556;BME280;49700;48.072;7.800;2023-02-11T08:16:49;101608.75;;;0.38;68.51
63556;BME280;49700;48.072;7.800;2023-02-11T08:19:37;101595.84;;;0.42;68.38
63556;BME280;49700;48.072;7.800;2023-02-11T08:22:04;101597.66;;;0.51;68.37
63556;BME280;49700;48.072;7.800;2023-02-11T08:24:41;101595.16;;;0.57;68.24
63556;BME280;49700;48.072;7.800;2023-02-11T08:27:10;101600.41;;;0.65;68.22
63556;BME280;49700;48.072;7.800;2023-02-11T08:29:35;101609.94;;;0.75;68.30
63556;BME280;49700;48.072;7.800;2023-02-11T08:32:02;101599.69;;;0.86;67.88
63556;BME280;49700;48.072;7.800;2023-02-11T08:34:31;101598.94;;;0.98;68.10
63556;BME280;49700;48.072;7.800;2023-02-11T08:36:57;101599.91;;;1.12;67.64
63556;BME280;49700;48.072;7.800;2023-02-11T08:39:22;101600.00;;;1.26;67.52
63556;BME280;49700;48.072;7.800;2023-02-11T08:41:54;101594.06;;;1.41;67.19
63556;BME280;49700;48.072;7.800;2023-02-11T08:44:29;101586.34;;;1.56;66.89
63556;BME280;49700;48.072;7.800;2023-02-11T08:47:01;101592.50;;;1.70;66.21
63556;BME280;49700;48.072;7.800;2023-02-11T08:49:33;101589.09;;;1.88;65.81
63556;BME280;49700;48.072;7.800;2023-02-11T08:52:19;101593.53;;;2.14;65.71
63556;BME280;49700;48.072;7.800;2023-02-11T08:54:47;101588.38;;;2.35;64.99
63556;BME280;49700;48.072;7.800;2023-02-11T08:57:16;101588.41;;;2.55;64.65
63556;BME280;49700;48.072;7.800;2023-02-11T08:59:50;101586.66;;;3.32;63.60
63556;BME280;49700;48.072;7.800;2023-02-11T09:02:21;101587.06;;;4.34;61.28
63556;BME280;49700;48.072;7.800;2023-02-11T09:04:52;101574.63;;;5.66;58.58
63556;BME280;49700;48.072;7.800;2023-02-11T09:07:24;101565.38;;;6.69;55.46
63556;BME280;49700;48.072;7.800;2023-02-11T09:10:08;101567.81;;;7.75;53.39
63556;BME280;49700;48.072;7.800;2023-02-11T09:12:34;101565.34;;;8.49;51.39
63556;BME280;49700;48.072;7.800;2023-02-11T09:15:08;101563.03;;;9.06;49.95
63556;BME280;49700;48.072;7.800;2023-02-11T09:17:52;101560.50;;;9.67;48.59
63556;BME280;49700;48.072;7.800;2023-02-11T09:20:21;101550.72;;;10.32;45.99
63556;BME280;49700;48.072;7.800;2023-02-11T09:22:46;101549.97;;;10.55;44.02
63556;BME280;49700;48.072;7.800;2023-02-11T09:25:18;101545.94;;;10.45;43.11
63556;BME280;49700;48.072;7.800;2023-02-11T09:27:44;101555.81;;;10.36;43.43
63556;BME280;49700;48.072;7.800;2023-02-11T09:30:10;101554.34;;;10.56;42.70
63556;BME280;49700;48.072;7.800;2023-02-11T09:32:36;101557.53;;;10.91;42.23
63556;BME280;49700;48.072;7.800;2023-02-11T09:35:08;101544.72;;;11.57;40.18
63556;BME280;49700;48.072;7.800;2023-02-11T09:37:36;101547.41;;;11.79;39.74
63556;BME280;49700;48.072;7.800;2023-02-11T09:40:05;101549.38;;;11.97;39.39
63556;BME280;49700;48.072;7.800;2023-02-11T09:42:45;101545.91;;;12.18;38.86
63556;BME280;49700;48.072;7.800;2023-02-11T09:45:17;101545.97;;;12.39;38.51
63556;BME280;49700;48.072;7.800;2023-02-11T09:50:41;101532.78;;;12.61;38.23
63556;BME280;49700;48.072;7.800;2023-02-11T09:55:57;101535.53;;;12.58;37.58
63556;BME280;49700;48.072;7.800;2023-02-11T09:58:41;101546.38;;;12.28;37.59
63556;BME280;49700;48.072;7.800;2023-02-11T10:01:35;101547.06;;;11.64;38.24
63556;BME280;49700;48.072;7.800;2023-02-11T10:04:51;101542.44;;;11.22;38.75
63556;BME280;49700;48.072;7.800;2023-02-11T10:07:47;101550.06;;;10.53;39.96
63556;BME280;49700;48.072;7.800;2023-02-11T10:16:30;101560.50;;;9.03;42.48
63556;BME280;49700;48.072;7.800;2023-02-11T10:19:28;101563.16;;;8.68;43.80
63556;BME280;49700;48.072;7.800;2023-02-11T10:25:33;101551.63;;;8.37;44.83
63556;BME280;49700;48.072;7.800;2023-02-11T10:28:09;101545.19;;;8.12;45.58
63556;BME280;49700;48.072;7.800;2023-02-11T10:33:53;101544.75;;;7.93;47.08
63556;BME280;49700;48.072;7.800;2023-02-11T10:36:38;101541.50;;;7.82;47.62
63556;BME280;49700;48.072;7.800;2023-02-11T10:39:15;101547.25;;;7.57;48.55
63556;BME280;49700;48.072;7.800;2023-02-11T10:42:01;101549.69;;;7.21;49.35
63556;BME280;49700;48.072;7.800;2023-02-11T10:44:35;101542.91;;;7.11;49.63
63556;BME280;49700;48.072;7.800;2023-02-11T10:47:08;101537.63;;;7.14;49.75
63556;BME280;49700;48.072;7.800;2023-02-11T10:49:40;101542.63;;;7.26;49.25
63556;BME280;49700;48.072;7.800;2023-02-11T10:55:01;101538.91;;;7.37;48.99
63556;BME280;49700;48.072;7.800;2023-02-11T10:57:40;101525.84;;;7.38;49.06
63556;BME280;49700;48.072;7.800;2023-02-11T11:00:35;101520.59;;;7.38;48.83
63556;BME280;49700;48.072;7.800;2023-02-11T11:03:04;101517.94;;;7.40;48.97
63556;BME280;49700;48.072;7.800;2023-02-11T11:05:36;101516.09;;;7.45;48.85
63556;BME280;49700;48.072;7.800;2023-02-11T11:08:09;101516.00;;;7.51;48.64
63556;BME280;49700;48.072;7.800;2023-02-11T11:10:38;101512.34;;;7.58;48.79
63556;BME280;49700;48.072;7.800;2023-02-11T11:13:34;101508.91;;;7.56;49.32
63556;BME280;49700;48.072;7.800;2023-02-11T11:16:27;101508.16;;;7.49;49.75
63556;BME280;49700;48.072;7.800;2023-02-11T11:19:13;101504.84;;;7.43;50.29
63556;BME280;49700;48.072;7.800;2023-02-11T11:24:16;101493.47;;;7.44;50.30
63556;BME280;49700;48.072;7.800;2023-02-11T11:26:44;101500.34;;;7.48;50.13
63556;BME280;49700;48.072;7.800;2023-02-11T11:29:21;101494.16;;;7.53;49.88
63556;BME280;49700;48.072;7.800;2023-02-11T11:32:00;101487.03;;;7.60;49.71
63556;BME280;49700;48.072;7.800;2023-02-11T11:34:31;101474.72;;;7.64;48.74
63556;BME280;49700;48.072;7.800;2023-02-11T11:37:00;101462.50;;;7.66;48.28
63556;BME280;49700;48.072;7.800;2023-02-11T11:39:29;101464.94;;;7.73;47.58
63556;BME280;49700;48.072;7.800;2023-02-11T11:42:31;101461.50;;;7.71;47.08
63556;BME280;49700;48.072;7.800;2023-02-11T11:50:36;101451.31;;;7.59;46.80
63556;BME280;49700;48.072;7.800;2023-02-11T11:53:09;101459.16;;;7.59;46.92
63556;BME280;49700;48.072;7.800;2023-02-11T11:55:41;101443.41;;;7.61;46.61
63556;BME280;49700;48.072;7.800;2023-02-11T11:58:19;101432.88;;;7.65;46.40
63556;BME280;49700;48.072;7.800;2023-02-11T12:09:11;101417.00;;;7.73;44.60
63556;BME280;49700;48.072;7.800;2023-02-11T12:19:57;101409.63;;;7.90;43.07
63556;BME280;49700;48.072;7.800;2023-02-11T12:27:46;101398.81;;;8.04;43.34
63556;BME280;49700;48.072;7.800;2023-02-11T12:30:28;101402.31;;;8.05;43.25
63556;BME280;49700;48.072;7.800;2023-02-11T12:41:00;101402.63;;;8.27;43.16
63556;BME280;49700;48.072;7.800;2023-02-11T12:43:36;101403.44;;;8.29;43.25
63556;BME280;49700;48.072;7.800;2023-02-11T12:46:35;101408.66;;;8.30;43.20
63556;BME280;49700;48.072;7.800;2023-02-11T12:49:30;101405.94;;;8.33;42.92
63556;BME280;49700;48.072;7.800;2023-02-11T12:52:06;101402.38;;;8.36;42.76
63556;BME280;49700;48.072;7.800;2023-02-11T12:54:54;101407.59;;;8.37;42.22
63556;BME280;49700;48.072;7.800;2023-02-11T12:57:25;101398.78;;;8.41;42.17
63556;BME280;49700;48.072;7.800;2023-02-11T13:02:29;101388.94;;;8.51;42.26
63556;BME280;49700;48.072;7.800;2023-02-11T13:07:38;101394.75;;;8.62;42.57
63556;BME280;49700;48.072;7.800;2023-02-11T13:10:20;101391.06;;;8.70;42.82
63556;BME280;49700;48.072;7.800;2023-02-11T13:12:48;101392.59;;;8.77;42.99
63556;BME280;49700;48.072;7.800;2023-02-11T13:15:34;101386.22;;;8.85;43.11
63556;BME280;49700;48.072;7.800;2023-02-11T13:18:26;101382.44;;;8.97;42.86
63556;BME280;49700;48.072;7.800;2023-02-11T13:20:55;101376.06;;;9.06;43.03
63556;BME280;49700;48.072;7.800;2023-02-11T13:23:33;101377.63;;;9.12;43.04
63556;BME280;49700;48.072;7.800;2023-02-11T13:26:11;101375.78;;;9.15;43.26
63556;BME280;49700;48.072;7.800;2023-02-11T13:31:26;101374.66;;;9.24;43.24
63556;BME280;49700;48.072;7.800;2023-02-11T13:33:54;101372.78;;;9.29;43.51
63556;BME280;49700;48.072;7.800;2023-02-11T13:36:24;101379.53;;;9.36;43.49
63556;BME280;49700;48.072;7.800;2023-02-11T13:38:56;101370.59;;;9.42;43.63
63556;BME280;49700;48.072;7.800;2023-02-11T13:41:34;101365.13;;;9.49;43.67
63556;BME280;49700;48.072;7.800;2023-02-11T13:46:48;101367.56;;;9.56;43.83
63556;BME280;49700;48.072;7.800;2023-02-11T13:49:19;101369.19;;;9.60;43.48
63556;BME280;49700;48.072;7.800;2023-02-11T13:51:45;101362.88;;;9.65;43.39
63556;BME280;49700;48.072;7.800;2023-02-11T13:54:21;101362.75;;;9.70;43.58
63556;BME280;49700;48.072;7.800;2023-02-11T13:57:14;101350.38;;;9.73;43.54
63556;BME280;49700;48.072;7.800;2023-02-11T14:00:00;101349.31;;;9.79;43.30
63556;BME280;49700;48.072;7.800;2023-02-11T14:02:33;101338.69;;;9.84;43.47
63556;BME280;49700;48.072;7.800;2023-02-11T14:19:38;101322.94;;;9.84;43.89
63556;BME280;49700;48.072;7.800;2023-02-11T14:22:18;101328.19;;;9.84;43.71
63556;BME280;49700;48.072;7.800;2023-02-11T14:24:51;101320.22;;;9.87;43.79
63556;BME280;49700;48.072;7.800;2023-02-11T14:38:30;101309.19;;;10.02;43.65
63556;BME280;49700;48.072;7.800;2023-02-11T14:41:26;101314.44;;;10.02;43.86
63556;BME280;49700;48.072;7.800;2023-02-11T14:43:57;101314.44;;;10.02;43.74
63556;BME280;49700;48.072;7.800;2023-02-11T14:46:24;101324.88;;;10.04;44.01
63556;BME280;49700;48.072;7.800;2023-02-11T14:49:00;101319.22;;;10.16;43.86
63556;BME280;49700;48.072;7.800;2023-02-11T14:51:26;101323.75;;;10.37;43.81
63556;BME280;49700;48.072;7.800;2023-02-11T14:53:54;101328.28;;;10.57;43.70
63556;BME280;49700;48.072;7.800;2023-02-11T14:56:25;101327.09;;;10.66;43.63
63556;BME280;49700;48.072;7.800;2023-02-11T14:58:51;101325.34;;;10.67;43.56
63556;BME280;49700;48.072;7.800;2023-02-11T15:01:33;101325.63;;;10.59;43.95
63556;BME280;49700;48.072;7.800;2023-02-11T15:04:04;101331.31;;;10.47;44.49
63556;BME280;49700;48.072;7.800;2023-02-11T15:06:38;101331.69;;;10.36;45.45
63556;BME280;49700;48.072;7.800;2023-02-11T15:09:13;101339.91;;;10.25;45.79
63556;BME280;49700;48.072;7.800;2023-02-11T15:11:42;101330.59;;;10.16;45.76
63556;BME280;49700;48.072;7.800;2023-02-11T15:14:15;101344.81;;;10.09;46.08
63556;BME280;49700;48.072;7.800;2023-02-11T15:16:44;101341.50;;;10.04;46.25